Time;durP1;ratioP1;P1;durP2;ratioP2;P2;SDS_P1;SDS_P2;PMS_P1;PMS_P2;Temp;Humidity;BMP_temperature;BMP_pressure;BME280_temperature;BME280_humidity;BME280_pressure;Samples;Min_cycle;Max_cycle;Signal;HPM_P1;HPM_P2
2023/10/14 00:02:21;;;;;;;;;15.40;13.00;;;;;18.79;76.73;98294.09;5114575;28;8815;-58
2023/10/14 00:04:52;;;;;;;;;12.20;12.20;;;;;18.81;77.00;98289.31;5093916;28;8836;-59
2023/10/14 00:07:24;;;;;;;;;18.20;16.00;;;;;18.82;76.92;98290.94;5110014;28;8858;-59
2023/10/14 00:09:53;;;;;;;;;14.60;13.80;;;;;18.86;76.34;98280.56;5074522;28;8836;-59
2023/10/14 00:12:21;;;;;;;;;16.00;15.20;;;;;18.88;76.28;98279.31;5081784;28;8828;-59
2023/10/14 00:14:53;;;;;;;;;13.40;12.40;;;;;18.90;76.40;98273.72;5094712;28;8830;-59
2023/10/14 00:17:22;;;;;;;;;18.80;16.00;;;;;18.86;76.49;98302.97;5094433;28;8858;-61
2023/10/14 00:19:50;;;;;;;;;13.00;12.00;;;;;18.88;76.50;98300.06;5094376;28;8845;-59
2023/10/14 00:22:19;;;;;;;;;13.60;12.60;;;;;18.92;76.23;98285.94;5094920;28;8829;-59
2023/10/14 00:24:48;;;;;;;;;15.20;15.00;;;;;18.96;75.71;98297.94;5093078;28;8833;-59
2023/10/14 00:27:17;;;;;;;;;13.80;13.40;;;;;19.02;75.92;98294.38;5094395;28;9640;-60
2023/10/14 00:29:45;;;;;;;;;15.80;15.00;;;;;19.04;75.90;98284.19;5094737;28;8840;-60
2023/10/14 00:32:12;;;;;;;;;15.80;12.80;;;;;19.07;75.16;98299.97;5094861;28;8830;-60
2023/10/14 00:34:42;;;;;;;;;12.80;12.80;;;;;19.12;75.40;98297.44;5094361;28;8838;-58
2023/10/14 00:37:10;;;;;;;;;15.60;13.40;;;;;19.20;74.77;98305.31;5094382;28;8845;-57
2023/10/14 00:39:38;;;;;;;;;15.00;13.00;;;;;19.29;74.23;98293.25;5095292;28;8845;-59
2023/10/14 00:42:08;;;;;;;;;17.20;15.80;;;;;19.31;73.78;98298.41;5094931;28;8831;-59
2023/10/14 00:44:38;;;;;;;;;14.60;13.80;;;;;19.18;74.50;98299.28;5094441;28;8869;-59
2023/10/14 00:47:14;;;;;;;;;6.00;6.00;;;;;19.12;74.64;98297.44;5094699;28;8834;-59
2023/10/14 00:49:42;;;;;;;;;16.00;14.20;;;;;19.17;74.05;98300.31;5094516;28;8836;-60
2023/10/14 00:52:16;;;;;;;;;18.00;16.00;;;;;19.26;73.81;98295.53;5093908;28;8834;-61
2023/10/14 00:54:58;;;;;;;;;19.20;18.20;;;;;19.35;73.76;98300.44;5094913;28;8822;-58
2023/10/14 00:57:37;;;;;;;;;15.60;15.00;;;;;19.46;72.86;98313.28;5094619;28;8857;-60
2023/10/14 01:00:22;;;;;;;;;12.20;10.00;;;;;18.94;74.34;98324.31;5095191;28;8834;-60
2023/10/14 01:02:52;;;;;;;;;19.60;17.60;;;;;18.39;75.92;98307.91;5074000;28;8913;-57
2023/10/14 01:05:21;;;;;;;;;11.40;11.00;;;;;18.07;76.82;98323.06;5076091;28;8842;-57
2023/10/14 01:07:49;;;;;;;;;15.00;15.00;;;;;17.88;77.81;98334.69;5084208;28;9472;-57
2023/10/14 01:10:24;;;;;;;;;13.00;10.40;;;;;17.79;77.57;98341.31;5098747;28;8883;-59
2023/10/14 01:12:55;;;;;;;;;8.20;7.80;;;;;17.82;78.02;98343.59;5097526;28;8814;-59
2023/10/14 01:15:24;;;;;;;;;11.60;10.80;;;;;17.88;77.15;98329.31;5095298;28;8838;-57
2023/10/14 01:17:52;;;;;;;;;11.20;9.80;;;;;17.96;77.05;98325.56;5097704;28;9492;-57
2023/10/14 01:20:35;;;;;;;;;15.00;13.40;;;;;18.01;77.10;98323.06;5097262;28;8857;-58
2023/10/14 01:23:07;;;;;;;;;13.00;13.00;;;;;17.90;77.33;98338.00;5098694;28;9694;-57
2023/10/14 01:25:41;;;;;;;;;11.60;11.60;;;;;17.72;78.18;98351.25;5097600;28;8907;-57
2023/10/14 01:28:12;;;;;;;;;12.60;10.80;;;;;17.59;78.13;98351.22;5076887;28;8905;-59
2023/10/14 01:30:42;;;;;;;;;10.40;10.00;;;;;17.51;78.80;98348.75;5077338;28;8886;-57
2023/10/14 01:33:12;;;;;;;;;11.60;10.80;;;;;17.45;79.19;98346.84;5077124;28;8858;-59
2023/10/14 01:35:43;;;;;;;;;15.60;14.60;;;;;17.41;78.91;98339.41;5077083;28;8828;-58
2023/10/14 01:38:11;;;;;;;;;12.00;10.40;;;;;17.36;78.93;98340.00;5077782;28;8836;-58
2023/10/14 01:40:39;;;;;;;;;7.60;7.60;;;;;17.32;79.39;98321.75;5077316;28;9477;-59
2023/10/14 01:43:08;;;;;;;;;9.80;7.00;;;;;17.30;79.62;98334.59;5076851;28;8816;-58
2023/10/14 01:45:40;;;;;;;;;10.40;9.00;;;;;17.31;79.43;98342.44;5077304;28;8978;-58
2023/10/14 01:48:14;;;;;;;;;11.80;10.80;;;;;17.36;79.32;98357.97;5076148;28;8847;-58
2023/10/14 01:50:45;;;;;;;;;15.20;13.80;;;;;17.43;79.45;98375.00;5076965;28;8824;-59
2023/10/14 01:53:17;;;;;;;;;13.00;11.60;;;;;17.54;78.71;98374.44;5077185;28;8835;-59
2023/10/14 01:55:47;;;;;;;;;13.00;12.00;;;;;17.55;78.50;98408.38;5076656;28;8816;-58
2023/10/14 01:58:22;;;;;;;;;12.40;12.00;;;;;17.42;79.18;98435.25;5076403;28;8835;-59
2023/10/14 02:00:53;;;;;;;;;12.40;10.40;;;;;17.27;78.95;98432.69;5077164;28;8836;-58
2023/10/14 02:03:21;;;;;;;;;11.60;11.20;;;;;17.18;79.71;98460.81;5087503;28;8821;-59
2023/10/14 02:05:51;;;;;;;;;7.40;6.00;;;;;17.05;79.98;98466.13;5096752;28;8844;-57
2023/10/14 02:08:21;;;;;;;;;6.00;4.40;;;;;16.84;80.24;98468.03;5096999;28;8822;-58
2023/10/14 02:10:50;;;;;;;;;3.80;3.20;;;;;16.62;81.04;98475.34;5088836;28;8810;-59
2023/10/14 02:13:17;;;;;;;;;2.20;2.20;;;;;16.47;80.87;98498.00;5096517;28;8818;-57
2023/10/14 02:15:46;;;;;;;;;0.40;0.40;;;;;16.28;81.17;98512.03;5107547;28;8822;-57
2023/10/14 02:18:15;;;;;;;;;0.00;0.00;;;;;16.09;81.40;98509.97;5096406;28;8919;-57
2023/10/14 02:20:56;;;;;;;;;0.00;0.00;;;;;15.90;82.32;98515.16;5096603;28;8835;-57
2023/10/14 02:23:24;;;;;;;;;0.00;0.00;;;;;15.70;82.10;98525.66;5096962;28;9523;-58
2023/10/14 02:25:56;;;;;;;;;0.00;0.00;;;;;15.49;82.52;98532.84;5096687;28;8912;-56
2023/10/14 02:28:24;;;;;;;;;0.00;0.00;;;;;15.35;82.95;98533.69;5096526;28;8802;-57
2023/10/14 02:30:52;;;;;;;;;0.00;0.00;;;;;15.21;83.33;98537.19;5096607;28;8913;-59
2023/10/14 02:33:20;;;;;;;;;0.00;0.00;;;;;15.15;83.27;98537.91;5091448;28;8855;-58
2023/10/14 02:35:48;;;;;;;;;0.00;0.00;;;;;15.11;83.67;98556.22;5096784;28;8851;-57
2023/10/14 02:38:17;;;;;;;;;0.00;0.00;;;;;15.04;83.55;98549.94;5096112;28;8834;-59
2023/10/14 02:40:44;;;;;;;;;0.00;0.00;;;;;15.01;83.63;98544.94;5096770;28;8870;-57
2023/10/14 02:43:16;;;;;;;;;0.00;0.00;;;;;14.99;83.26;98551.50;5096658;28;8829;-56
2023/10/14 02:45:45;;;;;;;;;0.00;0.00;;;;;14.95;83.53;98566.31;5096906;28;8861;-58
2023/10/14 02:48:18;;;;;;;;;0.00;0.00;;;;;14.90;83.04;98579.41;5096829;28;9527;-56
2023/10/14 02:50:50;;;;;;;;;0.00;0.00;;;;;14.82;83.54;98591.06;5096834;28;8837;-57
2023/10/14 02:53:22;;;;;;;;;0.00;0.00;;;;;14.76;83.74;98605.19;5095672;28;8854;-56
2023/10/14 02:56:02;;;;;;;;;0.00;0.00;;;;;14.69;83.24;98619.47;5096033;28;8822;-57
2023/10/14 02:58:32;;;;;;;;;0.00;0.00;;;;;14.61;83.89;98611.50;5095802;28;8826;-56
2023/10/14 03:01:00;;;;;;;;;0.00;0.00;;;;;14.57;83.64;98612.88;5095803;28;8814;-57
2023/10/14 03:03:29;;;;;;;;;0.00;0.00;;;;;14.52;83.48;98618.78;5095792;28;8910;-56
2023/10/14 03:06:05;;;;;;;;;0.00;0.00;;;;;14.47;83.70;98622.97;5095998;28;9519;-58
2023/10/14 03:08:34;;;;;;;;;0.00;0.00;;;;;14.45;83.03;98638.41;5095150;28;8821;-57
2023/10/14 03:11:15;;;;;;;;;1.00;0.00;;;;;14.40;83.81;98648.81;5095980;28;8829;-57
2023/10/14 03:13:44;;;;;;;;;0.00;0.00;;;;;14.36;83.51;98650.19;5095602;28;8969;-56
2023/10/14 03:16:13;;;;;;;;;0.00;0.00;;;;;14.30;83.34;98651.75;5087859;28;8818;-59
2023/10/14 03:18:44;;;;;;;;;0.00;0.00;;;;;14.29;83.60;98665.31;5110343;28;8875;-59
2023/10/14 03:21:22;;;;;;;;;0.00;0.00;;;;;14.27;83.06;98672.69;5095667;28;8830;-57
2023/10/14 03:23:50;;;;;;;;;0.00;0.00;;;;;14.25;83.25;98674.69;5104468;28;8804;-58
2023/10/14 03:26:20;;;;;;;;;0.00;0.00;;;;;14.24;83.69;98676.53;5115553;28;8828;-58
2023/10/14 03:28:50;;;;;;;;;0.00;0.00;;;;;14.26;83.19;98676.38;5097916;28;8823;-57
2023/10/14 03:31:19;;;;;;;;;0.00;0.00;;;;;14.26;83.21;98679.88;5115262;28;8808;-58
2023/10/14 03:33:47;;;;;;;;;0.00;0.00;;;;;14.28;83.53;98693.09;5107592;28;8806;-56
2023/10/14 03:36:22;;;;;;;;;0.00;0.00;;;;;14.29;83.46;98702.78;5095072;28;8826;-58
2023/10/14 03:38:56;;;;;;;;;0.00;0.00;;;;;14.28;83.25;98711.84;5096447;28;8800;-58
2023/10/14 03:41:29;;;;;;;;;0.00;0.00;;;;;14.28;82.85;98717.19;5106173;28;8837;-59
2023/10/14 03:44:00;;;;;;;;;0.00;0.00;;;;;14.29;83.14;98740.28;5098522;28;8895;-59
2023/10/14 03:46:32;;;;;;;;;0.00;0.00;;;;;14.27;82.60;98753.84;5094905;28;8806;-59
2023/10/14 03:49:06;;;;;;;;;0.00;0.00;;;;;14.15;83.28;98759.72;5095508;28;8838;-58
2023/10/14 03:51:38;;;;;;;;;0.00;0.00;;;;;13.99;83.06;98778.53;5095147;28;8840;-58
2023/10/14 03:54:08;;;;;;;;;0.25;0.25;;;;;13.84;83.35;98788.25;5095145;28;8834;-58
2023/10/14 03:56:36;;;;;;;;;0.00;0.00;;;;;13.73;83.74;98794.00;5094976;28;8833;-56
2023/10/14 03:59:05;;;;;;;;;0.00;0.00;;;;;13.63;83.79;98807.53;5094449;28;8865;-58
2023/10/14 04:01:43;;;;;;;;;0.00;0.00;;;;;13.56;83.75;98814.56;5094619;28;8826;-58
2023/10/14 04:04:17;;;;;;;;;1.00;1.00;;;;;13.49;84.20;98812.72;5094977;28;8830;-57
2023/10/14 04:06:51;;;;;;;;;0.00;0.00;;;;;13.45;84.39;98828.25;5095123;28;8842;-56
2023/10/14 04:09:24;;;;;;;;;0.00;0.00;;;;;13.41;84.47;98844.81;5094985;28;8903;-56
2023/10/14 04:11:53;;;;;;;;;0.00;0.00;;;;;13.34;84.26;98854.50;5094504;28;8852;-57
2023/10/14 04:14:27;;;;;;;;;0.00;0.00;;;;;13.29;84.12;98871.03;5095004;28;8853;-58
2023/10/14 04:17:09;;;;;;;;;0.00;0.00;;;;;13.23;84.82;98879.72;5094582;28;8822;-57
2023/10/14 04:19:46;;;;;;;;;0.00;0.00;;;;;13.18;84.65;98889.22;5094725;28;8822;-57
2023/10/14 04:22:31;;;;;;;;;0.00;0.00;;;;;13.13;84.41;98891.59;5095236;28;8953;-58
2023/10/14 04:25:16;;;;;;;;;0.00;0.00;;;;;13.07;84.08;98905.59;5094693;28;8826;-58
2023/10/14 04:27:56;;;;;;;;;1.00;0.50;;;;;13.01;84.61;98922.28;5095506;28;8872;-56
2023/10/14 04:30:32;;;;;;;;;0.50;0.00;;;;;12.97;84.41;98915.56;5094624;28;8830;-57
2023/10/14 04:33:16;;;;;;;;;0.00;0.00;;;;;12.93;84.74;98923.03;5095237;28;8844;-58
2023/10/14 04:35:57;;;;;;;;;1.00;1.00;;;;;12.92;84.60;98933.91;5095449;28;8837;-57
2023/10/14 04:38:38;;;;;;;;;0.00;0.00;;;;;12.90;84.28;98925.22;5095360;28;8814;-58
2023/10/14 04:41:12;;;;;;;;;0.75;0.75;;;;;12.89;84.88;98936.88;5097841;28;8833;-58
2023/10/14 04:46:32;;;;;;;;;3.00;1.00;;;;;12.86;84.53;98947.91;5098304;28;8860;-58
2023/10/14 04:49:06;;;;;;;;;1.00;1.00;;;;;12.87;84.31;98957.59;5110675;28;8854;-58
2023/10/14 04:51:38;;;;;;;;;1.00;1.00;;;;;12.88;83.78;98964.59;5097706;28;8965;-58
2023/10/14 04:54:09;;;;;;;;;0.25;0.25;;;;;12.88;83.85;98964.59;5097871;28;8856;-58
2023/10/14 04:56:37;;;;;;;;;0.50;0.25;;;;;12.88;84.28;98962.78;5097776;28;8918;-57
2023/10/14 04:59:06;;;;;;;;;0.00;0.00;;;;;12.88;83.71;98975.28;5097222;28;8894;-56
2023/10/14 05:01:34;;;;;;;;;0.50;0.50;;;;;12.84;84.22;98982.78;5097072;28;8830;-56
2023/10/14 05:04:01;;;;;;;;;0.00;0.00;;;;;12.79;83.71;98992.28;5098014;28;8838;-58
2023/10/14 05:06:30;;;;;;;;;0.00;0.00;;;;;12.74;84.16;99005.28;5097025;28;8834;-56
2023/10/14 05:08:59;;;;;;;;;0.50;0.50;;;;;12.72;84.03;99004.59;5097361;28;8822;-59
2023/10/14 05:11:31;;;;;;;;;0.00;0.00;;;;;12.70;84.07;99009.28;5098144;28;8822;-58
2023/10/14 05:14:08;;;;;;;;;0.00;0.00;;;;;12.66;83.61;99019.44;5097610;28;8833;-55
2023/10/14 05:16:51;;;;;;;;;1.00;1.00;;;;;12.63;84.30;99017.09;5097638;28;8906;-58
2023/10/14 05:19:24;;;;;;;;;1.00;0.00;;;;;12.60;84.54;99029.91;5097395;28;8903;-59
2023/10/14 05:21:58;;;;;;;;;1.00;0.75;;;;;12.54;83.82;99038.56;5097998;28;8830;-58
2023/10/14 05:24:28;;;;;;;;;0.75;0.50;;;;;12.48;83.85;99047.19;5097438;28;8944;-58
2023/10/14 05:27:00;;;;;;;;;0.00;0.00;;;;;12.41;84.51;99046.13;5097596;28;8973;-56
2023/10/14 05:29:29;;;;;;;;;0.50;0.00;;;;;12.33;84.02;99057.59;5097432;28;8829;-56
2023/10/14 05:32:04;;;;;;;;;0.50;0.50;;;;;12.26;84.10;99061.88;5095613;28;9523;-57
2023/10/14 05:34:33;;;;;;;;;0.00;0.00;;;;;12.23;84.16;99069.34;5095222;28;8822;-58
2023/10/14 05:37:01;;;;;;;;;0.75;0.75;;;;;12.17;84.29;99070.78;5095906;28;9490;-57
2023/10/14 05:39:36;;;;;;;;;0.00;0.00;;;;;12.13;84.67;99073.91;5095780;28;9511;-58
2023/10/14 05:42:13;;;;;;;;;0.00;0.00;;;;;12.09;84.20;99085.91;5096400;28;8838;-59
2023/10/14 05:44:46;;;;;;;;;1.00;1.00;;;;;12.06;84.72;99088.84;5096410;28;8889;-58
2023/10/14 05:47:13;;;;;;;;;0.75;0.50;;;;;12.03;84.77;99098.03;5099228;28;8840;-58
2023/10/14 05:49:41;;;;;;;;;0.75;0.75;;;;;12.01;84.52;99091.97;5112540;28;9457;-58
2023/10/14 05:52:11;;;;;;;;;1.00;0.00;;;;;11.99;84.62;99103.78;5096618;28;8810;-58
2023/10/14 05:54:39;;;;;;;;;0.50;0.50;;;;;11.97;84.39;99111.13;5098004;28;8830;-59
2023/10/14 05:57:08;;;;;;;;;0.50;0.00;;;;;11.97;84.90;99124.47;5107127;28;8822;-59
2023/10/14 05:59:37;;;;;;;;;0.00;0.00;;;;;11.94;84.35;99119.44;5096575;28;8846;-59
2023/10/14 06:02:07;;;;;;;;;0.00;0.00;;;;;11.93;84.38;99125.75;5095401;28;8840;-57
2023/10/14 06:04:39;;;;;;;;;0.00;0.00;;;;;11.92;84.51;99133.91;5096451;28;8960;-58
2023/10/14 06:07:07;;;;;;;;;0.00;0.00;;;;;11.91;84.97;99140.25;5096937;28;9589;-58
2023/10/14 06:09:36;;;;;;;;;0.50;0.00;;;;;11.89;84.62;99143.03;5096218;28;8818;-59
2023/10/14 06:12:06;;;;;;;;;0.00;0.00;;;;;11.88;84.42;99140.53;5096578;28;8840;-58
2023/10/14 06:14:34;;;;;;;;;0.50;0.50;;;;;11.88;84.57;99145.84;5096225;28;8980;-59
2023/10/14 06:17:01;;;;;;;;;0.00;0.00;;;;;11.87;84.11;99153.03;5096428;28;8826;-56
2023/10/14 06:19:30;;;;;;;;;1.50;1.50;;;;;11.87;84.34;99153.03;5095990;28;8830;-58
2023/10/14 06:21:59;;;;;;;;;0.00;0.00;;;;;11.87;84.33;99157.53;5096399;28;9919;-57
2023/10/14 06:24:26;;;;;;;;;0.75;0.75;;;;;11.87;84.41;99166.38;5095874;28;8858;-57
2023/10/14 06:27:07;;;;;;;;;0.00;0.00;;;;;11.87;84.31;99174.38;5095578;28;8837;-59
2023/10/14 06:29:34;;;;;;;;;1.00;1.00;;;;;11.86;84.24;99183.38;5095808;28;8910;-59
2023/10/14 06:32:03;;;;;;;;;0.00;0.00;;;;;11.89;83.85;99190.25;5095829;28;8825;-59
2023/10/14 06:34:47;;;;;;;;;0.00;0.00;;;;;11.90;83.68;99186.59;5095994;28;8822;-56
2023/10/14 06:37:15;;;;;;;;;0.00;0.00;;;;;11.91;83.84;99191.75;5095828;28;8842;-58
2023/10/14 06:39:43;;;;;;;;;1.00;1.00;;;;;11.91;83.98;99205.09;5095804;28;8952;-55
2023/10/14 06:42:12;;;;;;;;;0.50;0.25;;;;;11.92;83.88;99209.47;5095604;28;8834;-56
2023/10/14 06:44:45;;;;;;;;;0.00;0.00;;;;;11.93;83.96;99215.63;5095700;28;8842;-57
2023/10/14 06:47:13;;;;;;;;;1.00;1.00;;;;;11.94;83.47;99218.16;5095289;28;9529;-59
2023/10/14 06:49:41;;;;;;;;;1.00;1.00;;;;;11.96;83.68;99226.84;5095342;28;8822;-58
2023/10/14 06:52:11;;;;;;;;;1.50;0.75;;;;;11.98;83.88;99224.03;5095617;28;8838;-58
2023/10/14 06:54:41;;;;;;;;;0.75;0.75;;;;;12.00;83.70;99231.72;5095384;28;8849;-57
2023/10/14 06:57:09;;;;;;;;;0.50;0.50;;;;;12.02;83.31;99232.41;5095103;28;8826;-58
2023/10/14 06:59:37;;;;;;;;;0.50;0.50;;;;;12.04;83.80;99240.28;5108967;28;8815;-59
2023/10/14 07:02:05;;;;;;;;;0.00;0.00;;;;;12.05;82.95;99240.13;5096014;28;8826;-57
2023/10/14 07:04:37;;;;;;;;;0.00;0.00;;;;;12.08;83.28;99249.69;5094997;28;8826;-59
2023/10/14 07:07:08;;;;;;;;;1.00;1.00;;;;;12.10;82.88;99253.03;5096316;28;8860;-59
2023/10/14 07:09:39;;;;;;;;;1.00;0.00;;;;;12.13;83.07;99258.06;5095273;28;8815;-59
2023/10/14 07:12:13;;;;;;;;;0.75;0.00;;;;;12.15;82.73;99264.94;5096104;28;8838;-56
2023/10/14 07:14:44;;;;;;;;;0.00;0.00;;;;;12.19;82.61;99252.13;5095527;28;9523;-58
2023/10/14 07:17:17;;;;;;;;;0.00;0.00;;;;;12.23;83.10;99269.56;5094145;28;8911;-58
2023/10/14 07:19:46;;;;;;;;;1.00;1.00;;;;;12.25;82.49;99275.56;5110377;28;8988;-57
2023/10/14 07:22:18;;;;;;;;;0.50;0.50;;;;;12.26;82.88;99282.59;5109753;28;8845;-59
2023/10/14 07:24:46;;;;;;;;;1.50;1.00;;;;;12.28;82.90;99283.28;5093742;28;8904;-56
2023/10/14 07:27:17;;;;;;;;;2.50;1.00;;;;;12.30;82.63;99290.16;5093942;28;8830;-56
2023/10/14 07:29:45;;;;;;;;;0.00;0.00;;;;;12.34;82.42;99286.22;5072673;28;8820;-58
2023/10/14 07:32:16;;;;;;;;;1.00;1.00;;;;;12.44;82.77;99296.81;5072394;28;8836;-60
2023/10/14 07:34:44;;;;;;;;;0.00;0.00;;;;;12.54;82.10;99300.28;5073008;28;8832;-56
2023/10/14 07:37:13;;;;;;;;;1.00;1.00;;;;;12.62;81.89;99301.19;5073093;28;8863;-58
2023/10/14 07:39:41;;;;;;;;;0.50;0.50;;;;;12.69;81.62;99302.28;5074796;28;8974;-57
2023/10/14 07:42:13;;;;;;;;;0.00;0.00;;;;;12.73;81.67;99306.34;5093791;28;8834;-58
2023/10/14 07:44:41;;;;;;;;;0.00;0.00;;;;;12.80;81.55;99310.09;5093582;28;8985;-58
2023/10/14 07:47:10;;;;;;;;;0.00;0.00;;;;;12.86;81.49;99322.84;5094057;28;8867;-59
2023/10/14 07:49:39;;;;;;;;;1.00;1.00;;;;;12.88;81.09;99320.00;5093179;28;8834;-56
2023/10/14 07:52:14;;;;;;;;;0.00;0.00;;;;;12.89;81.32;99324.34;5093752;28;8939;-57
2023/10/14 07:54:42;;;;;;;;;1.00;0.00;;;;;12.89;80.68;99329.69;5093408;28;8893;-57
2023/10/14 07:57:12;;;;;;;;;0.75;0.00;;;;;12.92;80.88;99335.56;5093274;28;8860;-57
2023/10/14 07:59:41;;;;;;;;;2.00;2.00;;;;;12.95;80.88;99334.47;5091947;28;8841;-59
2023/10/14 08:02:10;;;;;;;;;0.00;0.00;;;;;12.95;81.06;99332.66;5092070;28;8862;-57
2023/10/14 08:04:38;;;;;;;;;0.00;0.00;;;;;12.96;80.95;99328.13;5091927;28;8833;-59
2023/10/14 08:07:07;;;;;;;;;1.00;1.00;;;;;12.97;80.86;99337.81;5092778;28;8845;-57
2023/10/14 08:09:39;;;;;;;;;0.00;0.00;;;;;12.99;80.90;99342.03;5092603;28;8914;-59
2023/10/14 08:12:07;;;;;;;;;1.50;0.50;;;;;13.03;80.30;99347.91;5092905;28;8838;-58
2023/10/14 08:14:34;;;;;;;;;1.00;1.00;;;;;13.10;80.38;99349.00;5095901;28;8854;-57
2023/10/14 08:17:11;;;;;;;;;0.75;0.75;;;;;13.21;80.35;99351.44;5097467;28;8798;-57
2023/10/14 08:19:39;;;;;;;;;1.00;1.00;;;;;13.29;80.17;99354.19;5097424;28;8830;-59
2023/10/14 08:22:08;;;;;;;;;3.00;3.00;;;;;13.33;79.62;99355.56;5098050;28;8845;-57
2023/10/14 08:24:38;;;;;;;;;0.00;0.00;;;;;13.36;80.01;99353.41;5117130;28;8813;-59
2023/10/14 08:27:06;;;;;;;;;0.00;0.00;;;;;13.46;79.48;99358.69;5117877;28;9500;-59
2023/10/14 08:29:35;;;;;;;;;0.00;0.00;;;;;13.53;79.34;99370.44;5111403;28;8828;-59
2023/10/14 08:32:03;;;;;;;;;3.25;2.50;;;;;13.56;79.12;99373.66;5077101;28;8875;-59
2023/10/14 08:34:32;;;;;;;;;1.50;1.00;;;;;13.60;79.37;99368.84;5083846;28;8887;-59
2023/10/14 08:37:01;;;;;;;;;1.00;0.00;;;;;13.69;78.82;99382.13;5097250;28;8838;-60
2023/10/14 08:39:31;;;;;;;;;1.00;1.00;;;;;13.70;78.77;99380.28;5096932;28;8829;-57
2023/10/14 08:41:59;;;;;;;;;3.00;3.00;;;;;13.68;79.25;99382.28;5096966;28;8811;-57
2023/10/14 08:44:28;;;;;;;;;0.75;0.50;;;;;13.71;78.65;99382.81;5096907;28;8988;-58
2023/10/14 08:46:56;;;;;;;;;0.25;0.25;;;;;13.73;78.99;99380.00;5097211;28;8956;-60
2023/10/14 08:49:28;;;;;;;;;3.00;1.00;;;;;13.73;78.50;99394.19;5096483;28;8838;-59
2023/10/14 08:51:56;;;;;;;;;2.50;2.50;;;;;13.73;78.18;99396.03;5096429;28;8822;-56
2023/10/14 08:54:26;;;;;;;;;4.00;4.00;;;;;13.77;78.21;99397.41;5096314;28;8830;-57
2023/10/14 08:56:54;;;;;;;;;1.50;1.50;;;;;13.87;78.45;99401.66;5096655;28;8942;-59
2023/10/14 08:59:23;;;;;;;;;3.75;3.75;;;;;14.01;77.98;99394.91;5096663;28;8940;-58
2023/10/14 09:01:51;;;;;;;;;3.00;1.00;;;;;14.13;77.51;99401.69;5096293;28;8842;-58
2023/10/14 09:04:20;;;;;;;;;0.00;0.00;;;;;14.13;77.57;99393.66;5096687;28;8840;-57
2023/10/14 09:06:48;;;;;;;;;3.50;3.00;;;;;14.07;77.86;99408.50;5096203;28;8838;-60
2023/10/14 09:09:20;;;;;;;;;0.50;0.50;;;;;14.06;78.04;99401.47;5094734;28;8838;-57
2023/10/14 09:11:51;;;;;;;;;3.75;3.00;;;;;14.00;77.96;99410.13;5094349;28;8837;-58
2023/10/14 09:14:19;;;;;;;;;0.25;0.25;;;;;14.00;78.05;99417.31;5094122;28;8868;-59
2023/10/14 09:16:48;;;;;;;;;1.00;1.00;;;;;14.09;77.54;99422.56;5095340;28;9618;-58
2023/10/14 09:19:16;;;;;;;;;1.00;1.00;;;;;14.17;77.17;99422.63;5094988;28;8825;-60
2023/10/14 09:21:45;;;;;;;;;1.00;1.00;;;;;14.25;77.20;99417.34;5096047;28;8842;-59
2023/10/14 09:24:13;;;;;;;;;0.00;0.00;;;;;14.35;76.94;99419.94;5095121;28;10019;-57
2023/10/14 09:26:43;;;;;;;;;3.00;3.00;;;;;14.37;76.96;99431.31;5094765;28;8830;-58
2023/10/14 09:29:11;;;;;;;;;1.00;1.00;;;;;14.31;76.71;99423.91;5097591;28;8907;-57
2023/10/14 09:31:39;;;;;;;;;1.00;1.00;;;;;14.25;76.79;99425.41;5115439;28;8815;-58
2023/10/14 09:34:08;;;;;;;;;3.00;2.50;;;;;14.34;76.57;99426.28;5100086;28;8834;-59
2023/10/14 09:36:42;;;;;;;;;0.00;0.00;;;;;14.47;76.35;99437.41;5110357;28;8812;-57
2023/10/14 09:39:13;;;;;;;;;0.75;0.75;;;;;14.62;76.28;99435.81;5105114;28;8919;-57
2023/10/14 09:41:41;;;;;;;;;2.00;2.00;;;;;14.80;76.16;99441.94;5095279;28;8953;-60
2023/10/14 09:44:10;;;;;;;;;2.75;1.00;;;;;15.00;75.24;99444.19;5095381;28;8842;-60
2023/10/14 09:46:40;;;;;;;;;1.40;0.60;;;;;15.21;74.90;99446.44;5095361;28;8867;-59
2023/10/14 09:49:10;;;;;;;;;0.00;0.00;;;;;15.46;73.97;99445.56;5095097;28;8928;-57
2023/10/14 09:51:38;;;;;;;;;3.00;1.50;;;;;15.69;73.42;99447.41;5094920;28;8910;-58
2023/10/14 09:54:06;;;;;;;;;3.20;1.00;;;;;15.97;73.07;99450.59;5095158;28;8840;-58
2023/10/14 09:56:36;;;;;;;;;1.40;1.40;;;;;16.14;72.59;99455.81;5094285;28;8814;-58
2023/10/14 09:59:10;;;;;;;;;1.00;1.00;;;;;16.02;72.58;99461.69;5094026;28;8830;-57
2023/10/14 10:01:38;;;;;;;;;1.00;1.00;;;;;16.00;72.79;99447.59;5093639;28;8852;-60
2023/10/14 10:04:06;;;;;;;;;3.00;2.60;;;;;15.96;72.94;99465.06;5094209;28;8842;-57
2023/10/14 10:06:35;;;;;;;;;2.60;1.00;;;;;16.12;72.64;99468.59;5093825;28;8817;-58
2023/10/14 10:09:03;;;;;;;;;1.00;1.00;;;;;16.16;72.20;99471.78;5093494;28;8830;-58
2023/10/14 10:11:33;;;;;;;;;1.00;1.00;;;;;16.18;72.31;99465.22;5094798;28;8833;-58
2023/10/14 10:14:01;;;;;;;;;2.60;1.00;;;;;16.36;71.54;99472.09;5094867;28;8976;-58
2023/10/14 10:16:29;;;;;;;;;1.40;1.00;;;;;16.43;71.65;99470.44;5093573;28;8845;-58
2023/10/14 10:18:57;;;;;;;;;1.00;1.00;;;;;16.35;71.82;99473.09;5094116;28;8972;-59
2023/10/14 10:21:26;;;;;;;;;3.60;1.00;;;;;16.18;71.82;99478.66;5094463;28;8830;-58
2023/10/14 10:23:56;;;;;;;;;2.60;2.20;;;;;16.08;72.18;99479.84;5094227;28;8854;-58
2023/10/14 10:26:24;;;;;;;;;1.00;1.00;;;;;16.00;72.71;99495.97;5094467;28;8849;-59
2023/10/14 10:28:52;;;;;;;;;0.00;0.00;;;;;15.99;71.92;99492.41;5093689;28;8834;-60
2023/10/14 10:31:21;;;;;;;;;0.00;0.00;;;;;16.02;71.87;99493.94;5093460;28;8818;-58
2023/10/14 10:33:49;;;;;;;;;2.20;1.00;;;;;16.04;72.11;99494.59;5092807;28;8841;-57
2023/10/14 10:36:19;;;;;;;;;0.00;0.00;;;;;16.04;72.03;99494.59;5092966;28;8834;-57
2023/10/14 10:38:47;;;;;;;;;2.60;2.60;;;;;16.13;71.93;99498.97;5099068;28;8827;-58
2023/10/14 10:41:15;;;;;;;;;3.00;2.20;;;;;16.29;71.29;99500.66;5107289;28;8850;-58
2023/10/14 10:43:42;;;;;;;;;1.00;1.00;;;;;16.26;71.85;99494.78;5093271;28;8826;-57
2023/10/14 10:46:10;;;;;;;;;0.80;0.80;;;;;15.96;71.97;99503.50;5093921;28;9589;-57
2023/10/14 10:48:38;;;;;;;;;0.80;0.80;;;;;15.64;72.59;99506.13;5102471;28;8812;-59
2023/10/14 10:51:08;;;;;;;;;1.00;1.00;;;;;15.41;73.46;99506.91;5114570;28;8824;-58
2023/10/14 10:53:37;;;;;;;;;1.00;1.00;;;;;15.33;73.20;99509.56;5109750;28;9540;-57
2023/10/14 10:56:05;;;;;;;;;0.00;0.00;;;;;15.25;73.24;99513.03;5100540;28;8841;-57
2023/10/14 10:58:33;;;;;;;;;1.00;1.00;;;;;15.22;73.70;99513.34;5093860;28;8822;-58
2023/10/14 11:01:02;;;;;;;;;0.50;0.00;;;;;15.20;73.59;99509.16;5092936;28;8856;-57
2023/10/14 11:03:29;;;;;;;;;1.80;1.40;;;;;15.20;73.31;99503.78;5093339;28;8960;-59
2023/10/14 11:05:58;;;;;;;;;1.00;0.80;;;;;15.36;73.38;99504.72;5093341;28;8810;-57
2023/10/14 11:08:26;;;;;;;;;1.40;1.40;;;;;15.72;71.80;99502.63;5093084;28;8821;-58
2023/10/14 11:10:56;;;;;;;;;2.20;1.00;;;;;15.98;71.40;99489.88;5092893;28;8838;-58
2023/10/14 11:13:25;;;;;;;;;3.00;1.00;;;;;16.29;70.81;99489.06;5092944;28;8846;-59
2023/10/14 11:15:53;;;;;;;;;3.00;3.00;;;;;16.69;69.59;99495.25;5093015;28;8930;-60
2023/10/14 11:18:21;;;;;;;;;0.00;0.00;;;;;17.07;68.67;99486.38;5093550;28;8834;-58
2023/10/14 11:21:05;;;;;;;;;1.00;1.00;;;;;17.24;67.83;99485.28;5093000;28;8992;-58
2023/10/14 11:23:38;;;;;;;;;1.00;1.00;;;;;17.04;68.69;99481.38;5093255;28;8822;-58
2023/10/14 11:26:07;;;;;;;;;1.00;1.00;;;;;16.72;69.32;99491.38;5093938;28;9535;-59
2023/10/14 11:28:37;;;;;;;;;0.80;0.80;;;;;16.67;69.58;99493.72;5093668;28;8956;-57
2023/10/14 11:31:07;;;;;;;;;3.00;3.00;;;;;16.53;69.73;99487.22;5093405;28;8857;-60
2023/10/14 11:33:35;;;;;;;;;1.40;1.00;;;;;16.46;69.90;99494.28;5093362;28;8864;-60
2023/10/14 11:36:04;;;;;;;;;2.20;2.20;;;;;16.69;69.57;99492.56;5093317;28;8826;-57
2023/10/14 11:38:31;;;;;;;;;1.00;1.00;;;;;16.51;69.92;99489.25;5094176;28;9500;-57
2023/10/14 11:41:02;;;;;;;;;0.40;0.40;;;;;16.26;70.53;99500.16;5093325;28;8834;-59
2023/10/14 11:43:30;;;;;;;;;4.00;3.00;;;;;16.02;70.55;99493.94;5092829;28;8972;-58
2023/10/14 11:45:58;;;;;;;;;3.00;3.00;;;;;15.79;70.89;99500.97;5093017;28;8849;-58
2023/10/14 11:48:26;;;;;;;;;1.00;1.00;;;;;15.60;71.99;99493.19;5092412;28;8895;-59
2023/10/14 11:50:53;;;;;;;;;1.80;1.00;;;;;15.42;72.31;99487.13;5093061;28;8841;-57
2023/10/14 11:53:22;;;;;;;;;3.00;3.00;;;;;15.23;72.71;99487.34;5093087;28;8842;-58
2023/10/14 11:55:50;;;;;;;;;2.60;1.00;;;;;15.05;72.77;99500.03;5108020;28;8851;-57
2023/10/14 11:58:19;;;;;;;;;6.00;3.00;;;;;15.51;71.66;99496.88;5112779;28;8886;-60